sensor_id;sensor_type;location;lat;lon;timestamp;pressure;altitude;pressure_sealevel;temperature;humidity
61292;BME280;47165;42.664;23.368;2022-12-10T00:01:44;94374.91;;;10.79;67.87
61292;BME280;47165;42.664;23.368;2022-12-10T00:04:11;94411.66;;;10.76;67.89
61292;BME280;47165;42.664;23.368;2022-12-10T00:06:38;94375.34;;;10.73;68.14
61292;BME280;47165;42.664;23.368;2022-12-10T00:09:06;94379.41;;;10.77;68.00
61292;BME280;47165;42.664;23.368;2022-12-10T00:11:32;94395.44;;;10.45;69.62
61292;BME280;47165;42.664;23.368;2022-12-10T00:13:58;94408.63;;;10.56;69.14
61292;BME280;47165;42.664;23.368;2022-12-10T00:16:26;94378.66;;;10.62;69.45
61292;BME280;47165;42.664;23.368;2022-12-10T00:18:52;94372.91;;;10.70;68.77
61292;BME280;47165;42.664;23.368;2022-12-10T00:21:21;94371.88;;;10.72;68.56
61292;BME280;47165;42.664;23.368;2022-12-10T00:23:47;94371.56;;;10.77;68.49
61292;BME280;47165;42.664;23.368;2022-12-10T00:26:25;94367.19;;;10.64;68.72
61292;BME280;47165;42.664;23.368;2022-12-10T00:28:52;94363.63;;;10.65;69.02
61292;BME280;47165;42.664;23.368;2022-12-10T00:31:23;94359.34;;;10.77;68.60
61292;BME280;47165;42.664;23.368;2022-12-10T00:33:49;94367.19;;;10.77;68.39
61292;BME280;47165;42.664;23.368;2022-12-10T00:36:30;94376.38;;;10.83;68.42
61292;BME280;47165;42.664;23.368;2022-12-10T00:38:55;94385.97;;;10.82;68.61
61292;BME280;47165;42.664;23.368;2022-12-10T00:41:21;94392.78;;;10.85;68.36
61292;BME280;47165;42.664;23.368;2022-12-10T00:43:47;94389.22;;;10.86;68.15
61292;BME280;47165;42.664;23.368;2022-12-10T00:46:14;94359.34;;;10.90;68.03
61292;BME280;47165;42.664;23.368;2022-12-10T00:48:40;94350.88;;;10.86;68.02
61292;BME280;47165;42.664;23.368;2022-12-10T00:51:07;94388.28;;;10.87;67.99
61292;BME280;47165;42.664;23.368;2022-12-10T00:53:34;94370.84;;;10.75;68.62
61292;BME280;47165;42.664;23.368;2022-12-10T00:56:00;94368.53;;;10.57;69.27
61292;BME280;47165;42.664;23.368;2022-12-10T00:58:27;94398.78;;;10.60;69.50
61292;BME280;47165;42.664;23.368;2022-12-10T01:00:53;94375.84;;;10.65;69.12
61292;BME280;47165;42.664;23.368;2022-12-10T01:03:19;94386.78;;;10.57;69.57
61292;BME280;47165;42.664;23.368;2022-12-10T01:05:45;94400.91;;;10.67;69.21
61292;BME280;47165;42.664;23.368;2022-12-10T01:08:10;94390.03;;;10.74;69.22
61292;BME280;47165;42.664;23.368;2022-12-10T01:10:36;94378.44;;;10.78;69.00
61292;BME280;47165;42.664;23.368;2022-12-10T01:13:02;94368.41;;;10.84;68.75
61292;BME280;47165;42.664;23.368;2022-12-10T01:15:28;94393.56;;;10.47;69.89
61292;BME280;47165;42.664;23.368;2022-12-10T01:17:53;94361.75;;;10.67;69.48
61292;BME280;47165;42.664;23.368;2022-12-10T01:20:18;94359.13;;;10.67;69.41
61292;BME280;47165;42.664;23.368;2022-12-10T01:22:44;94377.41;;;10.55;70.04
61292;BME280;47165;42.664;23.368;2022-12-10T01:25:09;94345.56;;;10.62;69.78
61292;BME280;47165;42.664;23.368;2022-12-10T01:27:35;94366.53;;;10.74;69.37
61292;BME280;47165;42.664;23.368;2022-12-10T01:30:00;94367.38;;;10.61;69.95
61292;BME280;47165;42.664;23.368;2022-12-10T01:32:26;94363.94;;;10.74;69.19
61292;BME280;47165;42.664;23.368;2022-12-10T01:34:51;94352.25;;;10.79;69.23
61292;BME280;47165;42.664;23.368;2022-12-10T01:37:16;94334.38;;;10.86;68.95
61292;BME280;47165;42.664;23.368;2022-12-10T01:39:42;94343.66;;;10.90;68.78
61292;BME280;47165;42.664;23.368;2022-12-10T01:42:09;94363.31;;;10.96;68.56
61292;BME280;47165;42.664;23.368;2022-12-10T01:47:05;94367.50;;;10.85;69.11
61292;BME280;47165;42.664;23.368;2022-12-10T01:49:37;94350.56;;;10.91;68.88
61292;BME280;47165;42.664;23.368;2022-12-10T01:52:06;94351.41;;;10.92;68.77
61292;BME280;47165;42.664;23.368;2022-12-10T01:54:37;94343.97;;;10.98;68.62
61292;BME280;47165;42.664;23.368;2022-12-10T01:57:07;94348.16;;;10.88;69.12
61292;BME280;47165;42.664;23.368;2022-12-10T01:59:33;94356.22;;;10.98;68.71
61292;BME280;47165;42.664;23.368;2022-12-10T02:02:07;94345.34;;;11.04;68.52
61292;BME280;47165;42.664;23.368;2022-12-10T02:17:17;94350.03;;;11.12;68.67
61292;BME280;47165;42.664;23.368;2022-12-10T02:22:56;94352.34;;;11.03;69.18
61292;BME280;47165;42.664;23.368;2022-12-10T02:25:24;94319.59;;;11.11;68.90
61292;BME280;47165;42.664;23.368;2022-12-10T02:30:18;94330.81;;;11.00;69.23
61292;BME280;47165;42.664;23.368;2022-12-10T02:32:46;94326.94;;;11.05;69.15
61292;BME280;47165;42.664;23.368;2022-12-10T02:35:19;94328.81;;;11.16;69.02
61292;BME280;47165;42.664;23.368;2022-12-10T02:37:49;94309.25;;;11.22;68.85
61292;BME280;47165;42.664;23.368;2022-12-10T02:40:19;94312.34;;;11.27;68.57
61292;BME280;47165;42.664;23.368;2022-12-10T02:42:49;94348.66;;;11.19;68.75
61292;BME280;47165;42.664;23.368;2022-12-10T02:45:17;94338.19;;;11.19;68.99
61292;BME280;47165;42.664;23.368;2022-12-10T02:47:43;94316.97;;;11.23;68.93
61292;BME280;47165;42.664;23.368;2022-12-10T02:50:10;94308.81;;;11.28;68.69
61292;BME280;47165;42.664;23.368;2022-12-10T02:52:37;94309.53;;;11.30;68.89
61292;BME280;47165;42.664;23.368;2022-12-10T02:55:03;94308.38;;;11.34;68.62
61292;BME280;47165;42.664;23.368;2022-12-10T02:57:51;94319.31;;;11.39;68.49
61292;BME280;47165;42.664;23.368;2022-12-10T03:00:19;94314.44;;;11.35;68.76
61292;BME280;47165;42.664;23.368;2022-12-10T03:03:20;94324.34;;;11.42;68.65
61292;BME280;47165;42.664;23.368;2022-12-10T03:08:51;94314.72;;;11.43;68.52
61292;BME280;47165;42.664;23.368;2022-12-10T03:11:22;94321.00;;;11.40;68.82
61292;BME280;47165;42.664;23.368;2022-12-10T03:14:02;94335.00;;;11.39;68.99
61292;BME280;47165;42.664;23.368;2022-12-10T03:16:33;94333.06;;;11.30;69.31
61292;BME280;47165;42.664;23.368;2022-12-10T03:19:03;94335.00;;;11.39;69.08
61292;BME280;47165;42.664;23.368;2022-12-10T03:21:30;94321.84;;;11.41;68.82
61292;BME280;47165;42.664;23.368;2022-12-10T03:23:58;94319.84;;;11.44;68.79
61292;BME280;47165;42.664;23.368;2022-12-10T03:26:23;94307.59;;;11.45;68.76
61292;BME280;47165;42.664;23.368;2022-12-10T03:28:54;94328.88;;;11.27;69.54
61292;BME280;47165;42.664;23.368;2022-12-10T03:31:22;94312.56;;;11.37;69.37
61292;BME280;47165;42.664;23.368;2022-12-10T03:33:48;94302.72;;;11.40;69.11
61292;BME280;47165;42.664;23.368;2022-12-10T03:36:15;94327.72;;;11.32;69.35
61292;BME280;47165;42.664;23.368;2022-12-10T03:38:42;94321.44;;;11.34;69.34
61292;BME280;47165;42.664;23.368;2022-12-10T03:41:08;94310.56;;;11.40;69.08
61292;BME280;47165;42.664;23.368;2022-12-10T03:43:34;94314.50;;;11.46;68.84
61292;BME280;47165;42.664;23.368;2022-12-10T03:45:59;94302.59;;;11.42;69.01
61292;BME280;47165;42.664;23.368;2022-12-10T03:48:24;94305.63;;;11.36;69.36
61292;BME280;47165;42.664;23.368;2022-12-10T03:50:50;94309.94;;;11.37;69.60
61292;BME280;47165;42.664;23.368;2022-12-10T03:53:15;94312.34;;;11.27;70.15
61292;BME280;47165;42.664;23.368;2022-12-10T03:55:41;94305.34;;;11.40;69.77
61292;BME280;47165;42.664;23.368;2022-12-10T03:58:06;94308.97;;;11.51;69.44
61292;BME280;47165;42.664;23.368;2022-12-10T04:00:32;94287.59;;;11.57;69.16
61292;BME280;47165;42.664;23.368;2022-12-10T04:02:57;94281.84;;;11.52;69.31
61292;BME280;47165;42.664;23.368;2022-12-10T04:05:22;94296.72;;;11.51;69.62
61292;BME280;47165;42.664;23.368;2022-12-10T04:07:48;94292.59;;;11.60;69.44
61292;BME280;47165;42.664;23.368;2022-12-10T04:10:13;94286.81;;;11.67;69.27
61292;BME280;47165;42.664;23.368;2022-12-10T04:12:39;94273.63;;;11.69;68.99
61292;BME280;47165;42.664;23.368;2022-12-10T04:15:05;94276.13;;;11.71;69.21
61292;BME280;47165;42.664;23.368;2022-12-10T04:17:49;94292.81;;;11.33;71.03
61292;BME280;47165;42.664;23.368;2022-12-10T04:20:15;94285.63;;;11.47;70.39
61292;BME280;47165;42.664;23.368;2022-12-10T04:22:58;94288.78;;;11.53;70.40
61292;BME280;47165;42.664;23.368;2022-12-10T04:25:42;94290.41;;;11.54;70.69
61292;BME280;47165;42.664;23.368;2022-12-10T04:28:26;94281.84;;;11.52;71.25
61292;BME280;47165;42.664;23.368;2022-12-10T04:30:52;94293.03;;;11.54;71.48
61292;BME280;47165;42.664;23.368;2022-12-10T04:33:17;94311.44;;;11.52;71.87
61292;BME280;47165;42.664;23.368;2022-12-10T04:35:43;94304.56;;;11.51;72.30
61292;BME280;47165;42.664;23.368;2022-12-10T04:38:08;94314.28;;;11.49;72.67
61292;BME280;47165;42.664;23.368;2022-12-10T04:40:34;94309.06;;;11.49;72.81
61292;BME280;47165;42.664;23.368;2022-12-10T04:42:59;94289.06;;;11.48;73.36
61292;BME280;47165;42.664;23.368;2022-12-10T04:45:24;94288.97;;;11.50;73.54
61292;BME280;47165;42.664;23.368;2022-12-10T04:47:50;94322.03;;;11.14;75.06
61292;BME280;47165;42.664;23.368;2022-12-10T04:50:15;94323.59;;;11.03;75.78
61292;BME280;47165;42.664;23.368;2022-12-10T04:52:41;94310.19;;;11.21;75.30
61292;BME280;47165;42.664;23.368;2022-12-10T04:55:06;94313.81;;;11.31;75.21
61292;BME280;47165;42.664;23.368;2022-12-10T04:57:32;94328.00;;;10.90;76.52
61292;BME280;47165;42.664;23.368;2022-12-10T04:59:57;94307.50;;;11.10;76.44
61292;BME280;47165;42.664;23.368;2022-12-10T05:02:23;94317.16;;;11.33;75.80
61292;BME280;47165;42.664;23.368;2022-12-10T05:04:49;94319.28;;;11.15;76.81
61292;BME280;47165;42.664;23.368;2022-12-10T05:07:14;94296.34;;;11.32;76.33
61292;BME280;47165;42.664;23.368;2022-12-10T05:09:40;94304.47;;;11.40;76.21
61292;BME280;47165;42.664;23.368;2022-12-10T05:12:05;94321.50;;;11.45;76.35
61292;BME280;47165;42.664;23.368;2022-12-10T05:14:31;94303.94;;;11.47;75.61
61292;BME280;47165;42.664;23.368;2022-12-10T05:16:56;94313.94;;;11.54;75.39
61292;BME280;47165;42.664;23.368;2022-12-10T05:19:22;94311.56;;;11.51;75.67
61292;BME280;47165;42.664;23.368;2022-12-10T05:21:48;94300.59;;;11.45;76.32
61292;BME280;47165;42.664;23.368;2022-12-10T05:24:43;94285.19;;;11.54;76.21
61292;BME280;47165;42.664;23.368;2022-12-10T05:27:08;94292.66;;;11.47;76.46
61292;BME280;47165;42.664;23.368;2022-12-10T05:29:34;94281.22;;;11.48;76.10
61292;BME280;47165;42.664;23.368;2022-12-10T05:31:59;94284.19;;;11.43;76.35
61292;BME280;47165;42.664;23.368;2022-12-10T05:34:25;94288.69;;;11.41;76.20
61292;BME280;47165;42.664;23.368;2022-12-10T05:36:50;94288.25;;;11.47;76.07
61292;BME280;47165;42.664;23.368;2022-12-10T05:39:16;94291.59;;;11.50;76.04
61292;BME280;47165;42.664;23.368;2022-12-10T05:41:42;94295.88;;;11.51;76.20
61292;BME280;47165;42.664;23.368;2022-12-10T05:44:09;94301.22;;;11.49;76.09
61292;BME280;47165;42.664;23.368;2022-12-10T05:46:35;94311.38;;;11.41;76.37
61292;BME280;47165;42.664;23.368;2022-12-10T05:49:02;94309.25;;;11.46;76.17
61292;BME280;47165;42.664;23.368;2022-12-10T05:51:30;94311.78;;;11.47;76.36
61292;BME280;47165;42.664;23.368;2022-12-10T05:53:57;94312.50;;;11.50;76.07
61292;BME280;47165;42.664;23.368;2022-12-10T05:56:24;94323.59;;;11.53;76.00
61292;BME280;47165;42.664;23.368;2022-12-10T05:58:52;94312.88;;;11.56;75.95
61292;BME280;47165;42.664;23.368;2022-12-10T06:01:23;94315.41;;;11.58;76.00
61292;BME280;47165;42.664;23.368;2022-12-10T06:03:49;94312.78;;;11.58;75.77
61292;BME280;47165;42.664;23.368;2022-12-10T06:06:22;94325.66;;;11.61;75.88
61292;BME280;47165;42.664;23.368;2022-12-10T06:08:49;94316.94;;;11.60;76.15
61292;BME280;47165;42.664;23.368;2022-12-10T06:11:14;94331.63;;;11.50;76.43
61292;BME280;47165;42.664;23.368;2022-12-10T06:13:40;94327.75;;;11.56;76.30
61292;BME280;47165;42.664;23.368;2022-12-10T06:16:06;94315.19;;;11.61;76.03
61292;BME280;47165;42.664;23.368;2022-12-10T06:18:33;94321.16;;;11.63;76.06
61292;BME280;47165;42.664;23.368;2022-12-10T06:21:03;94311.41;;;11.65;76.30
61292;BME280;47165;42.664;23.368;2022-12-10T06:23:29;94312.56;;;11.61;76.46
61292;BME280;47165;42.664;23.368;2022-12-10T06:25:54;94322.81;;;11.64;76.20
61292;BME280;47165;42.664;23.368;2022-12-10T06:28:19;94315.41;;;11.58;76.68
61292;BME280;47165;42.664;23.368;2022-12-10T06:30:45;94307.13;;;11.64;76.57
61292;BME280;47165;42.664;23.368;2022-12-10T06:33:10;94300.44;;;11.60;76.40
61292;BME280;47165;42.664;23.368;2022-12-10T06:35:37;94307.72;;;11.67;76.74
61292;BME280;47165;42.664;23.368;2022-12-10T06:38:02;94301.16;;;11.62;77.29
61292;BME280;47165;42.664;23.368;2022-12-10T06:40:28;94291.22;;;11.67;77.04
61292;BME280;47165;42.664;23.368;2022-12-10T06:42:53;94286.72;;;11.69;76.90
61292;BME280;47165;42.664;23.368;2022-12-10T06:45:18;94306.38;;;11.62;77.47
61292;BME280;47165;42.664;23.368;2022-12-10T06:47:44;94322.22;;;11.47;77.96
61292;BME280;47165;42.664;23.368;2022-12-10T06:50:09;94308.50;;;11.57;77.62
61292;BME280;47165;42.664;23.368;2022-12-10T06:52:35;94295.94;;;11.62;77.35
61292;BME280;47165;42.664;23.368;2022-12-10T06:55:00;94310.34;;;11.67;77.21
61292;BME280;47165;42.664;23.368;2022-12-10T06:57:26;94325.56;;;11.50;78.08
61292;BME280;47165;42.664;23.368;2022-12-10T06:59:51;94339.03;;;11.56;78.02
61292;BME280;47165;42.664;23.368;2022-12-10T07:02:16;94340.19;;;11.65;77.58
61292;BME280;47165;42.664;23.368;2022-12-10T07:04:42;94320.56;;;11.71;77.49
61292;BME280;47165;42.664;23.368;2022-12-10T07:07:07;94319.19;;;11.78;77.54
61292;BME280;47165;42.664;23.368;2022-12-10T07:09:34;94323.16;;;11.83;77.23
61292;BME280;47165;42.664;23.368;2022-12-10T07:11:59;94331.81;;;11.84;77.30
61292;BME280;47165;42.664;23.368;2022-12-10T07:14:25;94336.81;;;11.87;77.21
61292;BME280;47165;42.664;23.368;2022-12-10T07:16:50;94334.03;;;11.90;77.16
61292;BME280;47165;42.664;23.368;2022-12-10T07:19:16;94331.31;;;11.92;76.90
61292;BME280;47165;42.664;23.368;2022-12-10T07:21:42;94322.28;;;11.96;77.15
61292;BME280;47165;42.664;23.368;2022-12-10T07:24:14;94310.66;;;12.00;76.68
61292;BME280;47165;42.664;23.368;2022-12-10T07:26:42;94299.69;;;11.95;77.35
61292;BME280;47165;42.664;23.368;2022-12-10T07:29:12;94294.94;;;12.00;77.39
61292;BME280;47165;42.664;23.368;2022-12-10T07:31:38;94292.09;;;12.03;77.11
61292;BME280;47165;42.664;23.368;2022-12-10T07:34:04;94293.78;;;12.04;77.04
61292;BME280;47165;42.664;23.368;2022-12-10T07:36:30;94303.78;;;11.86;78.16
61292;BME280;47165;42.664;23.368;2022-12-10T07:38:55;94285.66;;;11.96;77.50
61292;BME280;47165;42.664;23.368;2022-12-10T07:41:22;94278.09;;;12.04;77.14
61292;BME280;47165;42.664;23.368;2022-12-10T07:43:48;94285.69;;;12.07;77.35
61292;BME280;47165;42.664;23.368;2022-12-10T07:46:19;94281.63;;;12.03;77.87
61292;BME280;47165;42.664;23.368;2022-12-10T07:48:46;94290.72;;;12.10;77.76
61292;BME280;47165;42.664;23.368;2022-12-10T07:51:12;94294.75;;;12.14;78.11
61292;BME280;47165;42.664;23.368;2022-12-10T07:53:39;94308.03;;;12.00;78.48
61292;BME280;47165;42.664;23.368;2022-12-10T07:56:04;94304.00;;;12.07;77.94
61292;BME280;47165;42.664;23.368;2022-12-10T07:58:30;94289.13;;;12.07;77.85
61292;BME280;47165;42.664;23.368;2022-12-10T08:00:56;94282.63;;;12.13;77.51
61292;BME280;47165;42.664;23.368;2022-12-10T08:03:21;94276.91;;;12.19;77.18
61292;BME280;47165;42.664;23.368;2022-12-10T08:05:46;94275.53;;;12.26;76.76
61292;BME280;47165;42.664;23.368;2022-12-10T08:08:12;94266.81;;;12.26;76.55
61292;BME280;47165;42.664;23.368;2022-12-10T08:10:38;94265.31;;;12.35;76.29
61292;BME280;47165;42.664;23.368;2022-12-10T08:13:05;94263.75;;;12.43;76.24
61292;BME280;47165;42.664;23.368;2022-12-10T08:15:30;94269.63;;;12.47;76.17
61292;BME280;47165;42.664;23.368;2022-12-10T08:17:57;94256.16;;;12.52;75.86
61292;BME280;47165;42.664;23.368;2022-12-10T08:20:23;94269.38;;;12.50;76.35
61292;BME280;47165;42.664;23.368;2022-12-10T08:22:50;94275.78;;;12.46;76.69
61292;BME280;47165;42.664;23.368;2022-12-10T08:25:15;94256.06;;;12.53;76.00
61292;BME280;47165;42.664;23.368;2022-12-10T08:27:41;94245.56;;;12.53;75.79
61292;BME280;47165;42.664;23.368;2022-12-10T08:30:07;94267.00;;;12.58;75.79
61292;BME280;47165;42.664;23.368;2022-12-10T08:32:33;94267.97;;;12.57;75.90
61292;BME280;47165;42.664;23.368;2022-12-10T08:34:58;94259.38;;;12.66;75.45
61292;BME280;47165;42.664;23.368;2022-12-10T08:37:24;94252.00;;;12.72;75.43
61292;BME280;47165;42.664;23.368;2022-12-10T08:39:49;94251.75;;;12.75;75.52
61292;BME280;47165;42.664;23.368;2022-12-10T08:42:15;94256.53;;;12.81;75.43
61292;BME280;47165;42.664;23.368;2022-12-10T08:44:40;94248.78;;;12.79;75.55
61292;BME280;47165;42.664;23.368;2022-12-10T08:47:06;94241.16;;;12.87;75.01
61292;BME280;47165;42.664;23.368;2022-12-10T08:49:31;94239.97;;;12.92;74.89
61292;BME280;47165;42.664;23.368;2022-12-10T08:51:57;94229.97;;;12.97;75.11
61292;BME280;47165;42.664;23.368;2022-12-10T08:54:22;94212.06;;;13.02;75.10
61292;BME280;47165;42.664;23.368;2022-12-10T08:56:47;94209.94;;;13.07;74.80
61292;BME280;47165;42.664;23.368;2022-12-10T08:59:13;94219.59;;;13.06;75.12
61292;BME280;47165;42.664;23.368;2022-12-10T09:01:38;94225.41;;;13.10;74.75
61292;BME280;47165;42.664;23.368;2022-12-10T09:04:04;94220.31;;;13.08;74.55
61292;BME280;47165;42.664;23.368;2022-12-10T09:06:29;94221.03;;;13.11;74.33
61292;BME280;47165;42.664;23.368;2022-12-10T09:08:55;94226.00;;;13.14;74.26
61292;BME280;47165;42.664;23.368;2022-12-10T09:11:25;94210.03;;;13.17;74.20
61292;BME280;47165;42.664;23.368;2022-12-10T09:13:52;94206.47;;;13.18;74.04
61292;BME280;47165;42.664;23.368;2022-12-10T09:16:18;94212.78;;;13.15;74.09
61292;BME280;47165;42.664;23.368;2022-12-10T09:18:43;94213.50;;;13.17;74.34
61292;BME280;47165;42.664;23.368;2022-12-10T09:21:14;94194.88;;;13.20;73.98
61292;BME280;47165;42.664;23.368;2022-12-10T09:23:41;94196.31;;;13.24;74.20
61292;BME280;47165;42.664;23.368;2022-12-10T09:26:09;94223.13;;;13.28;74.31
61292;BME280;47165;42.664;23.368;2022-12-10T09:28:36;94218.63;;;13.19;74.30
61292;BME280;47165;42.664;23.368;2022-12-10T09:31:04;94217.31;;;13.13;74.76
61292;BME280;47165;42.664;23.368;2022-12-10T09:33:30;94198.09;;;13.24;74.18
61292;BME280;47165;42.664;23.368;2022-12-10T09:35:56;94191.44;;;13.31;74.29
61292;BME280;47165;42.664;23.368;2022-12-10T09:38:22;94184.03;;;13.36;74.26
61292;BME280;47165;42.664;23.368;2022-12-10T09:41:04;94181.63;;;13.44;74.15
61292;BME280;47165;42.664;23.368;2022-12-10T09:44:07;94165.69;;;13.57;73.74
61292;BME280;47165;42.664;23.368;2022-12-10T09:46:55;94168.53;;;13.65;73.76
61292;BME280;47165;42.664;23.368;2022-12-10T09:49:55;94151.97;;;13.65;73.42
61292;BME280;47165;42.664;23.368;2022-12-10T09:52:24;94158.38;;;13.72;73.14
61292;BME280;47165;42.664;23.368;2022-12-10T09:54:55;94161.19;;;13.80;73.25
61292;BME280;47165;42.664;23.368;2022-12-10T09:57:29;94164.03;;;13.88;72.78
61292;BME280;47165;42.664;23.368;2022-12-10T09:59:56;94153.44;;;13.79;73.35
61292;BME280;47165;42.664;23.368;2022-12-10T10:04:54;94166.31;;;14.03;72.81
61292;BME280;47165;42.664;23.368;2022-12-10T10:07:25;94152.16;;;14.15;72.48
61292;BME280;47165;42.664;23.368;2022-12-10T10:09:56;94153.56;;;13.98;72.47
61292;BME280;47165;42.664;23.368;2022-12-10T10:12:23;94144.66;;;14.11;72.56
61292;BME280;47165;42.664;23.368;2022-12-10T10:14:48;94142.50;;;14.46;71.88
61292;BME280;47165;42.664;23.368;2022-12-10T10:17:29;94136.69;;;14.83;71.21
61292;BME280;47165;42.664;23.368;2022-12-10T10:19:58;94145.69;;;14.81;70.13
61292;BME280;47165;42.664;23.368;2022-12-10T10:22:23;94145.59;;;15.02;69.68
61292;BME280;47165;42.664;23.368;2022-12-10T10:24:50;94148.25;;;15.31;68.38
61292;BME280;47165;42.664;23.368;2022-12-10T10:27:21;94148.28;;;15.51;67.35
61292;BME280;47165;42.664;23.368;2022-12-10T10:29:50;94133.59;;;15.58;66.94
61292;BME280;47165;42.664;23.368;2022-12-10T10:32:18;94129.16;;;15.68;66.72
61292;BME280;47165;42.664;23.368;2022-12-10T10:34:46;94104.78;;;15.76;66.06
61292;BME280;47165;42.664;23.368;2022-12-10T10:37:25;94092.59;;;15.84;65.32
61292;BME280;47165;42.664;23.368;2022-12-10T10:39:54;94095.63;;;15.89;65.02
61292;BME280;47165;42.664;23.368;2022-12-10T10:42:41;94094.06;;;15.97;64.84
61292;BME280;47165;42.664;23.368;2022-12-10T10:48:04;94087.97;;;16.06;64.22
61292;BME280;47165;42.664;23.368;2022-12-10T10:50:30;94094.75;;;16.08;64.18
61292;BME280;47165;42.664;23.368;2022-12-10T10:53:01;94088.91;;;16.15;64.46
61292;BME280;47165;42.664;23.368;2022-12-10T10:55:31;94094.56;;;16.20;63.97
61292;BME280;47165;42.664;23.368;2022-12-10T10:58:00;94090.03;;;16.12;63.35
61292;BME280;47165;42.664;23.368;2022-12-10T11:00:26;94079.19;;;16.15;63.41
61292;BME280;47165;42.664;23.368;2022-12-10T11:02:52;94082.25;;;16.20;63.72
61292;BME280;47165;42.664;23.368;2022-12-10T11:05:25;94077.09;;;16.28;63.84
61292;BME280;47165;42.664;23.368;2022-12-10T11:08:06;94064.59;;;16.31;63.70
61292;BME280;47165;42.664;23.368;2022-12-10T11:10:47;94046.16;;;16.31;63.65
61292;BME280;47165;42.664;23.368;2022-12-10T11:13:25;94048.34;;;16.35;63.90
61292;BME280;47165;42.664;23.368;2022-12-10T11:18:35;94040.34;;;16.27;64.13
61292;BME280;47165;42.664;23.368;2022-12-10T11:23:40;94009.16;;;16.50;63.83
61292;BME280;47165;42.664;23.368;2022-12-10T11:45:27;94008.44;;;17.47;60.32
61292;BME280;47165;42.664;23.368;2022-12-10T11:48:07;94007.78;;;17.45;60.25
61292;BME280;47165;42.664;23.368;2022-12-10T11:51:06;94009.25;;;17.48;59.76
61292;BME280;47165;42.664;23.368;2022-12-10T12:02:08;93989.38;;;17.36;60.56
61292;BME280;47165;42.664;23.368;2022-12-10T12:10:32;93992.50;;;17.31;59.74
61292;BME280;47165;42.664;23.368;2022-12-10T12:13:04;93980.59;;;17.27;59.91
61292;BME280;47165;42.664;23.368;2022-12-10T12:15:34;93982.84;;;17.22;60.00
61292;BME280;47165;42.664;23.368;2022-12-10T12:18:08;93983.16;;;17.19;60.55
61292;BME280;47165;42.664;23.368;2022-12-10T12:23:13;93970.56;;;17.13;60.94
61292;BME280;47165;42.664;23.368;2022-12-10T12:25:45;93982.03;;;17.03;61.27
61292;BME280;47165;42.664;23.368;2022-12-10T12:30:45;93978.84;;;16.64;62.43
61292;BME280;47165;42.664;23.368;2022-12-10T12:33:29;93957.22;;;16.60;62.42
61292;BME280;47165;42.664;23.368;2022-12-10T12:36:02;93945.47;;;16.73;62.41
61292;BME280;47165;42.664;23.368;2022-12-10T12:38:35;93954.28;;;16.63;62.43
61292;BME280;47165;42.664;23.368;2022-12-10T12:44:00;93923.88;;;16.51;62.72
61292;BME280;47165;42.664;23.368;2022-12-10T12:46:54;93918.34;;;16.62;62.62
61292;BME280;47165;42.664;23.368;2022-12-10T12:49:25;93931.94;;;16.67;62.72
61292;BME280;47165;42.664;23.368;2022-12-10T12:54:45;93932.75;;;16.68;62.66
61292;BME280;47165;42.664;23.368;2022-12-10T12:57:21;93927.63;;;16.66;62.86
61292;BME280;47165;42.664;23.368;2022-12-10T13:00:16;93912.94;;;16.64;62.83
61292;BME280;47165;42.664;23.368;2022-12-10T13:08:20;93901.72;;;16.62;63.04
61292;BME280;47165;42.664;23.368;2022-12-10T13:15:55;93910.63;;;16.43;63.79
61292;BME280;47165;42.664;23.368;2022-12-10T13:18:33;93914.81;;;16.36;64.08
61292;BME280;47165;42.664;23.368;2022-12-10T13:21:29;93908.56;;;16.37;64.20
61292;BME280;47165;42.664;23.368;2022-12-10T13:24:10;93904.81;;;16.39;64.27
61292;BME280;47165;42.664;23.368;2022-12-10T13:26:40;93907.91;;;16.35;64.28
61292;BME280;47165;42.664;23.368;2022-12-10T13:29:23;93905.88;;;16.28;64.50
61292;BME280;47165;42.664;23.368;2022-12-10T13:31:54;93883.34;;;16.34;64.38
61292;BME280;47165;42.664;23.368;2022-12-10T13:42:32;93840.66;;;16.13;65.11
61292;BME280;47165;42.664;23.368;2022-12-10T13:47:54;93845.38;;;15.91;66.05
61292;BME280;47165;42.664;23.368;2022-12-10T13:56:03;93858.63;;;15.81;65.70
61292;BME280;47165;42.664;23.368;2022-12-10T14:06:42;93840.06;;;16.01;64.70
61292;BME280;47165;42.664;23.368;2022-12-10T14:09:15;93851.41;;;16.01;64.90
61292;BME280;47165;42.664;23.368;2022-12-10T14:11:45;93857.53;;;16.02;64.72
61292;BME280;47165;42.664;23.368;2022-12-10T14:14:20;93839.97;;;15.93;64.66
61292;BME280;47165;42.664;23.368;2022-12-10T14:16:47;93842.91;;;15.89;64.87
61292;BME280;47165;42.664;23.368;2022-12-10T14:19:15;93840.28;;;15.89;64.64
61292;BME280;47165;42.664;23.368;2022-12-10T14:21:42;93841.78;;;15.92;64.94
61292;BME280;47165;42.664;23.368;2022-12-10T14:24:30;93833.03;;;15.64;65.52
61292;BME280;47165;42.664;23.368;2022-12-10T14:27:05;93822.34;;;15.75;65.35
61292;BME280;47165;42.664;23.368;2022-12-10T14:29:36;93828.44;;;15.76;65.14
61292;BME280;47165;42.664;23.368;2022-12-10T14:32:01;93824.81;;;15.77;65.19
61292;BME280;47165;42.664;23.368;2022-12-10T14:34:28;93812.94;;;15.73;65.20
61292;BME280;47165;42.664;23.368;2022-12-10T14:36:55;93809.19;;;15.75;65.37
61292;BME280;47165;42.664;23.368;2022-12-10T14:39:26;93814.16;;;15.78;65.07
61292;BME280;47165;42.664;23.368;2022-12-10T14:41:56;93820.09;;;15.80;65.13
61292;BME280;47165;42.664;23.368;2022-12-10T14:44:23;93809.44;;;15.82;65.03
61292;BME280;47165;42.664;23.368;2022-12-10T14:46:49;93808.06;;;15.78;65.32
61292;BME280;47165;42.664;23.368;2022-12-10T14:49:20;93794.91;;;15.78;65.32
61292;BME280;47165;42.664;23.368;2022-12-10T14:51:45;93787.00;;;15.78;65.34
61292;BME280;47165;42.664;23.368;2022-12-10T14:54:37;93797.22;;;15.81;65.24